createdAt,value
2024-02-29T00:03:53.623Z,99263.19
2024-02-29T00:08:56.925Z,99267.51
2024-02-29T00:14:00.134Z,99265.89
2024-02-29T00:19:04.654Z,99266.00
2024-02-29T00:24:08.756Z,99268.56
2024-02-29T00:29:11.995Z,99266.00
2024-02-29T00:34:15.725Z,99265.61
2024-02-29T00:39:20.038Z,99272.52
2024-02-29T00:44:24.351Z,99272.10
2024-02-29T00:49:27.691Z,99275.64
2024-02-29T00:54:31.015Z,99277.27
2024-02-29T00:59:34.727Z,99275.02
2024-02-29T01:04:39.321Z,99271.77
2024-02-29T01:09:42.889Z,99270.36
2024-02-29T01:14:46.038Z,99271.98
2024-02-29T01:19:49.224Z,99266.88
2024-02-29T01:24:53.426Z,99259.39
2024-02-29T01:29:56.666Z,99256.45
2024-02-29T01:35:00.706Z,99253.39
2024-02-29T01:40:05.564Z,99254.84
2024-02-29T01:45:09.069Z,99255.97
2024-02-29T01:50:14.162Z,99253.50
2024-02-29T01:55:17.869Z,99254.52
2024-02-29T02:00:21.915Z,99258.21
2024-02-29T02:05:28.019Z,99259.67
2024-02-29T02:10:31.255Z,99261.19
2024-02-29T02:15:35.309Z,99253.63
2024-02-29T02:20:39.269Z,99255.69
2024-02-29T02:25:43.639Z,99249.75
2024-02-29T02:30:47.785Z,99245.91
2024-02-29T02:35:52.326Z,99242.04
2024-02-29T02:40:55.956Z,99244.02
2024-02-29T02:45:59.607Z,99245.71
2024-02-29T02:51:03.800Z,99243.34
2024-02-29T02:56:07.555Z,99239.02
2024-02-29T03:01:11.847Z,99246.20
2024-02-29T03:06:15.697Z,99244.11
2024-02-29T03:11:19.443Z,99248.86
2024-02-29T03:16:25.085Z,99251.48
2024-02-29T03:21:29.644Z,99250.27
2024-02-29T03:26:33.685Z,99257.16
2024-02-29T03:31:37.381Z,99256.65
2024-02-29T03:36:40.909Z,99253.87
2024-02-29T03:41:44.511Z,99253.66
2024-02-29T03:46:48.713Z,99250.41
2024-02-29T03:51:52.429Z,99249.66
2024-02-29T03:56:56.346Z,99246.05
2024-02-29T04:02:01.698Z,99245.33
2024-02-29T04:07:06.163Z,99243.75
2024-02-29T04:12:10.172Z,99241.29
2024-02-29T04:17:13.824Z,99235.67
2024-02-29T04:22:17.293Z,99234.46
2024-02-29T04:27:20.691Z,99234.35
2024-02-29T04:32:23.956Z,99227.90
2024-02-29T04:37:27.160Z,99229.08
2024-02-29T04:42:30.640Z,99233.17
2024-02-29T04:47:36.070Z,99224.63
2024-02-29T04:52:39.360Z,99220.40
2024-02-29T04:57:42.732Z,99221.29
2024-02-29T05:02:46.015Z,99219.77
2024-02-29T05:07:49.330Z,99220.16
2024-02-29T05:12:52.742Z,99219.02
2024-02-29T05:17:55.930Z,99222.70
2024-02-29T05:22:59.164Z,99224.25
2024-02-29T05:28:03.332Z,99228.20
2024-02-29T05:33:06.757Z,99231.52
2024-02-29T05:38:10.015Z,99235.70
2024-02-29T05:43:16.866Z,99250.09
2024-02-29T05:48:20.166Z,99247.60
2024-02-29T05:53:24.342Z,99246.62
2024-02-29T05:58:33.090Z,99243.46
2024-02-29T06:03:39.143Z,99242.36
2024-02-29T06:08:42.568Z,99244.05
2024-02-29T06:13:45.756Z,99249.47
2024-02-29T06:18:49.555Z,99252.23
2024-02-29T06:23:56.367Z,99249.56
2024-02-29T06:28:59.605Z,99245.56
2024-02-29T06:34:04.078Z,99247.36
2024-02-29T06:39:09.512Z,99242.06
2024-02-29T06:44:13.393Z,99242.37
2024-02-29T06:49:17.255Z,99244.52
2024-02-29T06:54:20.536Z,99249.06
2024-02-29T06:59:23.853Z,99244.70
2024-02-29T07:04:27.243Z,99242.63
2024-02-29T07:09:30.600Z,99245.27
2024-02-29T07:14:36.217Z,99240.38
2024-02-29T07:19:40.854Z,99238.90
2024-02-29T07:24:44.014Z,99243.64
2024-02-29T07:29:47.385Z,99243.19
2024-02-29T07:34:50.517Z,99240.59
2024-02-29T07:39:53.724Z,99230.79
2024-02-29T07:44:57.759Z,99236.79
2024-02-29T07:50:00.960Z,99227.69
2024-02-29T07:55:07.533Z,99223.93
2024-02-29T08:00:13.140Z,99220.31
2024-02-29T08:05:16.514Z,99221.27
2024-02-29T08:10:20.339Z,99222.62
2024-02-29T08:15:23.852Z,99216.40
2024-02-29T08:20:27.456Z,99211.01
2024-02-29T08:25:32.323Z,99204.34
2024-02-29T08:30:35.547Z,99201.33
2024-02-29T08:35:40.272Z,99198.88
2024-02-29T08:40:43.564Z,99199.50
2024-02-29T08:45:46.825Z,99198.08
2024-02-29T08:50:50.303Z,99199.33
2024-02-29T08:55:53.954Z,99197.75
2024-02-29T09:00:57.401Z,99193.77
2024-02-29T09:06:01.094Z,99193.69
2024-02-29T09:11:05.077Z,99187.53
2024-02-29T09:16:09.480Z,99190.34
2024-02-29T09:21:12.923Z,99189.73
2024-02-29T09:26:18.023Z,99191.47
2024-02-29T09:31:21.811Z,99191.87
2024-02-29T09:36:26.129Z,99185.06
2024-02-29T09:41:41.597Z,99179.79
2024-02-29T09:46:52.692Z,99173.25
2024-02-29T09:51:56.439Z,99159.20
2024-02-29T09:57:00.247Z,99153.72
2024-02-29T10:02:05.393Z,99151.52
2024-02-29T10:07:08.974Z,99152.45
2024-02-29T10:12:17.937Z,99145.12
2024-02-29T10:17:21.230Z,99142.77
2024-02-29T10:22:24.423Z,99140.18
2024-02-29T10:27:28.514Z,99141.47
2024-02-29T10:32:33.997Z,99140.83
2024-02-29T10:37:37.372Z,99135.25
2024-02-29T10:42:42.291Z,99130.65
2024-02-29T10:47:54.708Z,99122.15
2024-02-29T10:53:09.088Z,99110.62
2024-02-29T10:58:23.426Z,99101.69
2024-02-29T11:03:27.188Z,99098.23
2024-02-29T11:08:38.068Z,99080.12
2024-02-29T11:13:42.477Z,99085.77
2024-02-29T11:18:45.997Z,99079.60
2024-02-29T11:23:50.846Z,99073.63
2024-02-29T11:28:54.164Z,99070.20
2024-02-29T11:33:57.593Z,99067.15
2024-02-29T11:39:01.061Z,99060.93
2024-02-29T11:44:04.934Z,99057.48
2024-02-29T11:49:08.290Z,99053.17
2024-02-29T11:54:14.458Z,99045.81
2024-02-29T11:59:19.168Z,99041.11
2024-02-29T12:04:22.925Z,99030.85
2024-02-29T12:09:26.730Z,99032.09
2024-02-29T12:14:30.529Z,99024.52
2024-02-29T12:19:33.918Z,99021.52
2024-02-29T12:24:37.242Z,99016.33
2024-02-29T12:29:43.968Z,99012.05
2024-02-29T12:34:47.682Z,99002.69
2024-02-29T12:39:56.157Z,99004.20
2024-02-29T12:45:00.183Z,99000.23
2024-02-29T12:50:09.424Z,98987.26
2024-02-29T12:55:13.754Z,98978.42
2024-02-29T13:00:25.631Z,98972.92
2024-02-29T13:05:28.972Z,98965.30
2024-02-29T13:10:32.162Z,98961.40
2024-02-29T13:15:35.734Z,98955.22
2024-02-29T13:20:39.123Z,98938.92
2024-02-29T13:25:42.555Z,98936.52
2024-02-29T13:30:45.966Z,98924.29
2024-02-29T13:35:49.192Z,98924.52
2024-02-29T13:40:52.342Z,98921.66
2024-02-29T13:45:55.689Z,98916.63
2024-02-29T13:50:59.117Z,98914.30
2024-02-29T13:56:02.600Z,98911.84
2024-02-29T14:01:08.418Z,98905.30
2024-02-29T14:06:15.821Z,98897.23
2024-02-29T14:11:19.188Z,98895.97
2024-02-29T14:16:22.729Z,98894.04
2024-02-29T14:21:26.089Z,98897.98
2024-02-29T14:26:29.475Z,98889.89
2024-02-29T14:31:32.898Z,98886.89
2024-02-29T14:36:37.894Z,98881.77
2024-02-29T14:41:45.094Z,98880.78
2024-02-29T14:46:49.033Z,98881.34
2024-02-29T14:51:56.410Z,98880.73
2024-02-29T14:56:59.861Z,98879.72
2024-02-29T15:02:03.471Z,98872.98
2024-02-29T15:07:07.212Z,98869.89
2024-02-29T15:12:10.579Z,98865.93
2024-02-29T15:17:14.165Z,98855.27
2024-02-29T15:22:17.747Z,98863.50
2024-02-29T15:27:21.415Z,98864.58
2024-02-29T15:32:24.997Z,98858.54
2024-02-29T15:37:29.280Z,98859.98
2024-02-29T15:42:33.667Z,98850.63
2024-02-29T15:47:36.983Z,98846.65
2024-02-29T15:52:40.465Z,98843.25
2024-02-29T15:57:43.767Z,98847.89
2024-02-29T16:02:46.895Z,98844.56
2024-02-29T16:07:51.957Z,98846.35
2024-02-29T16:13:00.273Z,98845.20
2024-02-29T16:18:03.906Z,98845.33
2024-02-29T16:23:07.246Z,98847.67
2024-02-29T16:28:10.678Z,98842.67
2024-02-29T16:33:14.037Z,98845.80
2024-02-29T16:38:17.410Z,98845.29
2024-02-29T16:43:22.358Z,98843.11
2024-02-29T16:48:26.288Z,98843.16
2024-02-29T16:53:29.551Z,98839.01
2024-02-29T16:58:33.711Z,98835.73
2024-02-29T17:03:37.002Z,98836.35
2024-02-29T17:08:40.309Z,98836.97
2024-02-29T17:13:44.691Z,98843.42
2024-02-29T17:18:48.210Z,98842.61
2024-02-29T17:23:54.968Z,98842.36
2024-02-29T17:28:58.363Z,98843.64
2024-02-29T17:34:04.875Z,98840.94
2024-02-29T17:39:08.607Z,98839.73
2024-02-29T17:44:13.628Z,98835.73
2024-02-29T17:49:17.471Z,98831.20
2024-02-29T17:54:21.196Z,98825.19
2024-02-29T17:59:24.464Z,98820.03
2024-02-29T18:04:29.335Z,98814.60
2024-02-29T18:09:33.620Z,98807.45
2024-02-29T18:14:36.834Z,98808.20
2024-02-29T18:19:40.146Z,98805.58
2024-02-29T18:24:43.461Z,98802.16
2024-02-29T18:29:47.887Z,98795.69
2024-02-29T18:34:51.086Z,98789.64
2024-02-29T18:39:55.039Z,98792.02
2024-02-29T18:44:59.605Z,98786.48
2024-02-29T18:50:04.347Z,98784.45
2024-02-29T18:55:11.010Z,98778.74
2024-02-29T19:00:16.544Z,98776.59
2024-02-29T19:05:19.914Z,98768.14
2024-02-29T19:10:24.434Z,98760.35
2024-02-29T19:15:27.711Z,98751.34
2024-02-29T19:20:30.952Z,98748.08
2024-02-29T19:25:34.276Z,98745.95
2024-02-29T19:30:38.071Z,98741.16
2024-02-29T19:35:41.260Z,98735.42
2024-02-29T19:40:44.540Z,98731.64
2024-02-29T19:45:47.857Z,98731.88
2024-02-29T19:50:52.453Z,98732.38
2024-02-29T19:55:56.538Z,98731.18
2024-02-29T20:01:04.631Z,98734.80
2024-02-29T20:06:08.291Z,98727.73
2024-02-29T20:11:11.822Z,98725.79
2024-02-29T20:16:15.058Z,98725.13
2024-02-29T20:21:18.267Z,98721.52
2024-02-29T20:26:21.485Z,98716.21
2024-02-29T20:31:25.514Z,98708.38
2024-02-29T20:36:30.332Z,98707.52
2024-02-29T20:41:34.081Z,98701.95
2024-02-29T20:46:37.672Z,98690.86
2024-02-29T20:51:41.195Z,98695.45
2024-02-29T20:56:44.729Z,98691.79
2024-02-29T21:01:48.116Z,98684.52
2024-02-29T21:06:51.835Z,98680.14
2024-02-29T21:11:55.131Z,98675.30
2024-02-29T21:16:58.351Z,98664.93
2024-02-29T21:22:01.657Z,98664.21
2024-02-29T21:27:07.320Z,98656.08
2024-02-29T21:32:10.597Z,98649.16
2024-02-29T21:37:13.863Z,98639.05
2024-02-29T21:42:17.200Z,98634.52
2024-02-29T21:47:20.471Z,98632.13
2024-02-29T21:52:24.355Z,98627.33
2024-02-29T21:57:27.595Z,98621.57
2024-02-29T22:02:30.985Z,98613.58
2024-02-29T22:07:34.382Z,98612.40
2024-02-29T22:12:39.156Z,98613.93
2024-02-29T22:17:42.399Z,98616.52
2024-02-29T22:22:45.610Z,98609.20
2024-02-29T22:27:49.011Z,98604.78
2024-02-29T22:32:52.579Z,98598.65
2024-02-29T22:37:55.788Z,98591.91
2024-02-29T22:42:59.037Z,98589.91
2024-02-29T22:48:02.315Z,98587.08
2024-02-29T22:53:05.562Z,98581.05
2024-02-29T22:58:08.842Z,98565.70
2024-02-29T23:03:12.300Z,98555.95
2024-02-29T23:08:15.887Z,98551.33
2024-02-29T23:13:19.102Z,98545.98
2024-02-29T23:18:22.623Z,98538.95
2024-02-29T23:23:26.138Z,98536.08
2024-02-29T23:28:29.558Z,98532.98
2024-02-29T23:33:33.008Z,98527.39
2024-02-29T23:38:36.226Z,98526.88
2024-02-29T23:43:39.810Z,98525.25
2024-02-29T23:48:43.100Z,98516.88
2024-02-29T23:53:46.217Z,98512.62
2024-02-29T23:58:49.489Z,98505.08
